sensor_id;sensor_type;location;lat;lon;timestamp;temperature;humidity
4390;DHT22;2209;48.982;8.406;2024-03-06T00:00:48;9.50;99.90
4390;DHT22;2209;48.982;8.406;2024-03-06T00:03:12;9.50;99.90
4390;DHT22;2209;48.982;8.406;2024-03-06T00:05:34;9.50;99.90
4390;DHT22;2209;48.982;8.406;2024-03-06T00:07:56;9.50;99.90
4390;DHT22;2209;48.982;8.406;2024-03-06T00:10:18;9.50;99.90
4390;DHT22;2209;48.982;8.406;2024-03-06T00:12:40;9.50;99.90
4390;DHT22;2209;48.982;8.406;2024-03-06T00:15:03;9.50;99.90
4390;DHT22;2209;48.982;8.406;2024-03-06T00:17:25;9.50;99.90
4390;DHT22;2209;48.982;8.406;2024-03-06T00:19:49;9.50;99.90
4390;DHT22;2209;48.982;8.406;2024-03-06T00:22:12;9.60;99.90
4390;DHT22;2209;48.982;8.406;2024-03-06T00:24:34;9.60;99.90
4390;DHT22;2209;48.982;8.406;2024-03-06T00:26:56;9.60;99.90
4390;DHT22;2209;48.982;8.406;2024-03-06T00:29:18;9.60;99.90
4390;DHT22;2209;48.982;8.406;2024-03-06T00:31:42;9.60;99.90
4390;DHT22;2209;48.982;8.406;2024-03-06T00:34:05;9.60;99.90
4390;DHT22;2209;48.982;8.406;2024-03-06T00:36:28;9.60;99.90
4390;DHT22;2209;48.982;8.406;2024-03-06T00:38:50;9.60;99.90
4390;DHT22;2209;48.982;8.406;2024-03-06T00:41:13;9.60;99.90
4390;DHT22;2209;48.982;8.406;2024-03-06T00:43:35;9.60;99.90
4390;DHT22;2209;48.982;8.406;2024-03-06T00:45:57;9.60;99.90
4390;DHT22;2209;48.982;8.406;2024-03-06T00:48:20;9.60;99.90
4390;DHT22;2209;48.982;8.406;2024-03-06T00:50:42;9.60;99.90
4390;DHT22;2209;48.982;8.406;2024-03-06T00:53:06;9.60;99.90
4390;DHT22;2209;48.982;8.406;2024-03-06T00:55:28;9.60;99.90
4390;DHT22;2209;48.982;8.406;2024-03-06T00:57:50;9.60;99.90
4390;DHT22;2209;48.982;8.406;2024-03-06T01:00:13;9.50;99.90
4390;DHT22;2209;48.982;8.406;2024-03-06T01:02:37;9.50;99.90
4390;DHT22;2209;48.982;8.406;2024-03-06T01:04:59;9.50;99.90
4390;DHT22;2209;48.982;8.406;2024-03-06T01:07:24;9.50;99.90
4390;DHT22;2209;48.982;8.406;2024-03-06T01:09:48;9.50;99.90
4390;DHT22;2209;48.982;8.406;2024-03-06T01:12:10;9.50;99.90
4390;DHT22;2209;48.982;8.406;2024-03-06T01:14:32;9.50;99.90
4390;DHT22;2209;48.982;8.406;2024-03-06T01:16:54;9.40;99.90
4390;DHT22;2209;48.982;8.406;2024-03-06T01:19:16;9.40;99.90
4390;DHT22;2209;48.982;8.406;2024-03-06T01:21:38;9.40;99.90
4390;DHT22;2209;48.982;8.406;2024-03-06T01:24:01;9.40;99.90
4390;DHT22;2209;48.982;8.406;2024-03-06T01:26:24;9.40;99.90
4390;DHT22;2209;48.982;8.406;2024-03-06T01:28:46;9.40;99.90
4390;DHT22;2209;48.982;8.406;2024-03-06T01:31:08;9.40;99.90
4390;DHT22;2209;48.982;8.406;2024-03-06T01:33:30;9.40;99.90
4390;DHT22;2209;48.982;8.406;2024-03-06T01:35:52;9.40;99.90
4390;DHT22;2209;48.982;8.406;2024-03-06T01:38:14;9.40;99.90
4390;DHT22;2209;48.982;8.406;2024-03-06T01:40:36;9.40;99.90
4390;DHT22;2209;48.982;8.406;2024-03-06T01:43:00;9.50;99.90
4390;DHT22;2209;48.982;8.406;2024-03-06T01:45:23;9.50;99.90
4390;DHT22;2209;48.982;8.406;2024-03-06T01:47:45;9.50;99.90
4390;DHT22;2209;48.982;8.406;2024-03-06T01:50:08;9.40;99.90
4390;DHT22;2209;48.982;8.406;2024-03-06T01:52:31;9.50;99.90
4390;DHT22;2209;48.982;8.406;2024-03-06T01:54:53;9.40;99.90
4390;DHT22;2209;48.982;8.406;2024-03-06T01:57:17;9.40;99.90
4390;DHT22;2209;48.982;8.406;2024-03-06T01:59:43;9.40;99.90
4390;DHT22;2209;48.982;8.406;2024-03-06T02:02:07;9.40;99.90
4390;DHT22;2209;48.982;8.406;2024-03-06T02:04:32;9.40;99.90
4390;DHT22;2209;48.982;8.406;2024-03-06T02:06:54;9.40;99.90
4390;DHT22;2209;48.982;8.406;2024-03-06T02:09:16;9.40;99.90
4390;DHT22;2209;48.982;8.406;2024-03-06T02:11:39;9.40;99.90
4390;DHT22;2209;48.982;8.406;2024-03-06T02:14:02;9.30;99.90
4390;DHT22;2209;48.982;8.406;2024-03-06T02:16:26;9.40;99.90
4390;DHT22;2209;48.982;8.406;2024-03-06T02:18:51;9.30;99.90
4390;DHT22;2209;48.982;8.406;2024-03-06T02:21:15;9.30;99.90
4390;DHT22;2209;48.982;8.406;2024-03-06T02:23:37;9.30;99.90
4390;DHT22;2209;48.982;8.406;2024-03-06T02:25:59;9.30;99.90
4390;DHT22;2209;48.982;8.406;2024-03-06T02:31:40;9.20;99.90
4390;DHT22;2209;48.982;8.406;2024-03-06T02:34:02;9.20;99.90
4390;DHT22;2209;48.982;8.406;2024-03-06T02:36:28;9.20;99.90
4390;DHT22;2209;48.982;8.406;2024-03-06T02:38:50;9.20;99.90
4390;DHT22;2209;48.982;8.406;2024-03-06T02:41:12;9.10;99.90
4390;DHT22;2209;48.982;8.406;2024-03-06T02:43:36;9.20;99.90
4390;DHT22;2209;48.982;8.406;2024-03-06T02:45:59;9.10;99.90
4390;DHT22;2209;48.982;8.406;2024-03-06T02:48:21;9.10;99.90
4390;DHT22;2209;48.982;8.406;2024-03-06T02:50:43;9.10;99.90
4390;DHT22;2209;48.982;8.406;2024-03-06T02:53:06;9.10;99.90
4390;DHT22;2209;48.982;8.406;2024-03-06T02:55:28;9.10;99.90
4390;DHT22;2209;48.982;8.406;2024-03-06T02:57:50;9.10;99.90
4390;DHT22;2209;48.982;8.406;2024-03-06T03:00:13;9.20;99.90
4390;DHT22;2209;48.982;8.406;2024-03-06T03:02:36;9.20;99.90
4390;DHT22;2209;48.982;8.406;2024-03-06T03:04:59;9.20;99.90
4390;DHT22;2209;48.982;8.406;2024-03-06T03:07:21;9.20;99.90
4390;DHT22;2209;48.982;8.406;2024-03-06T03:09:45;9.20;99.90
4390;DHT22;2209;48.982;8.406;2024-03-06T03:12:07;9.20;99.90
4390;DHT22;2209;48.982;8.406;2024-03-06T03:14:32;9.10;99.90
4390;DHT22;2209;48.982;8.406;2024-03-06T03:16:54;9.20;99.90
4390;DHT22;2209;48.982;8.406;2024-03-06T03:19:16;9.10;99.90
4390;DHT22;2209;48.982;8.406;2024-03-06T03:21:38;9.20;99.90
4390;DHT22;2209;48.982;8.406;2024-03-06T03:24:03;9.20;99.90
4390;DHT22;2209;48.982;8.406;2024-03-06T03:26:27;9.10;99.90
4390;DHT22;2209;48.982;8.406;2024-03-06T03:28:49;9.10;99.90
4390;DHT22;2209;48.982;8.406;2024-03-06T03:31:11;9.10;99.90
4390;DHT22;2209;48.982;8.406;2024-03-06T03:33:33;9.10;99.90
4390;DHT22;2209;48.982;8.406;2024-03-06T03:35:55;9.10;99.90
4390;DHT22;2209;48.982;8.406;2024-03-06T03:38:17;9.00;99.90
4390;DHT22;2209;48.982;8.406;2024-03-06T03:40:39;9.00;99.90
4390;DHT22;2209;48.982;8.406;2024-03-06T03:43:03;9.00;99.90
4390;DHT22;2209;48.982;8.406;2024-03-06T03:45:27;9.00;99.90
4390;DHT22;2209;48.982;8.406;2024-03-06T03:47:49;9.00;99.90
4390;DHT22;2209;48.982;8.406;2024-03-06T03:50:11;9.00;99.90
4390;DHT22;2209;48.982;8.406;2024-03-06T03:52:33;9.00;99.90
4390;DHT22;2209;48.982;8.406;2024-03-06T03:54:55;9.00;99.90
4390;DHT22;2209;48.982;8.406;2024-03-06T03:57:17;9.00;99.90
4390;DHT22;2209;48.982;8.406;2024-03-06T03:59:41;9.00;99.90
4390;DHT22;2209;48.982;8.406;2024-03-06T04:02:03;9.00;99.90
4390;DHT22;2209;48.982;8.406;2024-03-06T04:04:25;9.00;99.90
4390;DHT22;2209;48.982;8.406;2024-03-06T04:06:47;9.00;99.90
4390;DHT22;2209;48.982;8.406;2024-03-06T04:09:09;9.00;99.90
4390;DHT22;2209;48.982;8.406;2024-03-06T04:11:31;9.00;99.90
4390;DHT22;2209;48.982;8.406;2024-03-06T04:13:55;8.90;99.90
4390;DHT22;2209;48.982;8.406;2024-03-06T04:16:18;8.90;99.90
4390;DHT22;2209;48.982;8.406;2024-03-06T04:18:40;8.90;99.90
4390;DHT22;2209;48.982;8.406;2024-03-06T04:21:04;8.90;99.90
4390;DHT22;2209;48.982;8.406;2024-03-06T04:23:26;8.90;99.90
4390;DHT22;2209;48.982;8.406;2024-03-06T04:25:49;8.90;99.90
4390;DHT22;2209;48.982;8.406;2024-03-06T04:28:11;8.90;99.90
4390;DHT22;2209;48.982;8.406;2024-03-06T04:30:33;8.90;99.90
4390;DHT22;2209;48.982;8.406;2024-03-06T04:32:57;8.90;99.90
4390;DHT22;2209;48.982;8.406;2024-03-06T04:35:19;8.90;99.90
4390;DHT22;2209;48.982;8.406;2024-03-06T04:37:41;8.90;99.90
4390;DHT22;2209;48.982;8.406;2024-03-06T04:40:05;8.90;99.90
4390;DHT22;2209;48.982;8.406;2024-03-06T04:42:28;8.90;99.90
4390;DHT22;2209;48.982;8.406;2024-03-06T04:44:50;8.90;99.90
4390;DHT22;2209;48.982;8.406;2024-03-06T04:47:12;8.90;99.90
4390;DHT22;2209;48.982;8.406;2024-03-06T04:49:35;8.90;99.90
4390;DHT22;2209;48.982;8.406;2024-03-06T04:51:58;8.90;99.90
4390;DHT22;2209;48.982;8.406;2024-03-06T04:54:20;8.90;99.90
4390;DHT22;2209;48.982;8.406;2024-03-06T04:56:42;8.90;99.90
4390;DHT22;2209;48.982;8.406;2024-03-06T04:59:04;8.90;99.90
4390;DHT22;2209;48.982;8.406;2024-03-06T05:01:26;8.90;99.90
4390;DHT22;2209;48.982;8.406;2024-03-06T05:03:49;8.90;99.90
4390;DHT22;2209;48.982;8.406;2024-03-06T05:06:13;8.90;99.90
4390;DHT22;2209;48.982;8.406;2024-03-06T05:08:35;8.90;99.90
4390;DHT22;2209;48.982;8.406;2024-03-06T05:11:00;8.90;99.90
4390;DHT22;2209;48.982;8.406;2024-03-06T05:13:23;8.90;99.90
4390;DHT22;2209;48.982;8.406;2024-03-06T05:15:45;8.90;99.90
4390;DHT22;2209;48.982;8.406;2024-03-06T05:18:07;8.80;99.90
4390;DHT22;2209;48.982;8.406;2024-03-06T05:20:30;8.90;99.90
4390;DHT22;2209;48.982;8.406;2024-03-06T05:22:54;8.90;99.90
4390;DHT22;2209;48.982;8.406;2024-03-06T05:25:16;8.90;99.90
4390;DHT22;2209;48.982;8.406;2024-03-06T05:27:38;8.90;99.90
4390;DHT22;2209;48.982;8.406;2024-03-06T05:30:00;8.90;99.90
4390;DHT22;2209;48.982;8.406;2024-03-06T05:32:22;8.90;99.90
4390;DHT22;2209;48.982;8.406;2024-03-06T05:34:44;8.90;99.90
4390;DHT22;2209;48.982;8.406;2024-03-06T05:37:06;8.90;99.90
4390;DHT22;2209;48.982;8.406;2024-03-06T05:39:30;8.90;99.90
4390;DHT22;2209;48.982;8.406;2024-03-06T05:41:53;8.90;99.90
4390;DHT22;2209;48.982;8.406;2024-03-06T05:44:15;8.90;99.90
4390;DHT22;2209;48.982;8.406;2024-03-06T05:46:38;8.90;99.90
4390;DHT22;2209;48.982;8.406;2024-03-06T05:49:00;8.80;99.90
4390;DHT22;2209;48.982;8.406;2024-03-06T05:51:23;8.90;99.90
4390;DHT22;2209;48.982;8.406;2024-03-06T05:53:45;8.80;99.90
4390;DHT22;2209;48.982;8.406;2024-03-06T05:56:08;8.80;99.90
4390;DHT22;2209;48.982;8.406;2024-03-06T05:58:31;8.90;99.90
4390;DHT22;2209;48.982;8.406;2024-03-06T06:00:53;8.90;99.90
4390;DHT22;2209;48.982;8.406;2024-03-06T06:03:15;8.80;99.90
4390;DHT22;2209;48.982;8.406;2024-03-06T06:05:38;8.80;99.90
4390;DHT22;2209;48.982;8.406;2024-03-06T06:08:00;8.80;99.90
4390;DHT22;2209;48.982;8.406;2024-03-06T06:10:22;8.80;99.90
4390;DHT22;2209;48.982;8.406;2024-03-06T06:12:46;8.80;99.90
4390;DHT22;2209;48.982;8.406;2024-03-06T06:15:09;8.80;99.90
4390;DHT22;2209;48.982;8.406;2024-03-06T06:17:31;8.80;99.90
4390;DHT22;2209;48.982;8.406;2024-03-06T06:19:53;8.80;99.90
4390;DHT22;2209;48.982;8.406;2024-03-06T06:22:15;8.80;99.90
4390;DHT22;2209;48.982;8.406;2024-03-06T06:24:38;8.80;99.90
4390;DHT22;2209;48.982;8.406;2024-03-06T06:27:01;8.80;99.90
4390;DHT22;2209;48.982;8.406;2024-03-06T06:29:25;8.80;99.90
4390;DHT22;2209;48.982;8.406;2024-03-06T06:31:47;8.80;99.90
4390;DHT22;2209;48.982;8.406;2024-03-06T06:34:09;8.80;99.90
4390;DHT22;2209;48.982;8.406;2024-03-06T06:36:32;8.80;99.90
4390;DHT22;2209;48.982;8.406;2024-03-06T06:38:54;8.80;99.90
4390;DHT22;2209;48.982;8.406;2024-03-06T06:41:17;8.80;99.90
4390;DHT22;2209;48.982;8.406;2024-03-06T06:43:40;8.80;99.90
4390;DHT22;2209;48.982;8.406;2024-03-06T06:46:04;8.80;99.90
4390;DHT22;2209;48.982;8.406;2024-03-06T06:48:26;8.80;99.90
4390;DHT22;2209;48.982;8.406;2024-03-06T06:50:49;8.80;99.90
4390;DHT22;2209;48.982;8.406;2024-03-06T06:53:11;8.80;99.90
4390;DHT22;2209;48.982;8.406;2024-03-06T06:55:33;8.80;99.90
4390;DHT22;2209;48.982;8.406;2024-03-06T06:57:57;8.80;99.90
4390;DHT22;2209;48.982;8.406;2024-03-06T07:00:19;8.80;99.90
4390;DHT22;2209;48.982;8.406;2024-03-06T07:02:45;8.80;99.90
4390;DHT22;2209;48.982;8.406;2024-03-06T07:05:07;8.80;99.90
4390;DHT22;2209;48.982;8.406;2024-03-06T07:07:30;8.80;99.90
4390;DHT22;2209;48.982;8.406;2024-03-06T07:09:52;8.80;99.90
4390;DHT22;2209;48.982;8.406;2024-03-06T07:12:14;8.80;99.90
4390;DHT22;2209;48.982;8.406;2024-03-06T07:14:36;8.80;99.90
4390;DHT22;2209;48.982;8.406;2024-03-06T07:16:58;8.70;99.90
4390;DHT22;2209;48.982;8.406;2024-03-06T07:22:39;8.80;99.90
4390;DHT22;2209;48.982;8.406;2024-03-06T07:25:01;8.70;99.90
4390;DHT22;2209;48.982;8.406;2024-03-06T07:27:23;8.70;99.90
4390;DHT22;2209;48.982;8.406;2024-03-06T07:29:45;8.70;99.90
4390;DHT22;2209;48.982;8.406;2024-03-06T07:32:07;8.70;99.90
4390;DHT22;2209;48.982;8.406;2024-03-06T07:34:30;8.70;99.90
4390;DHT22;2209;48.982;8.406;2024-03-06T07:36:53;8.70;99.90
4390;DHT22;2209;48.982;8.406;2024-03-06T07:39:16;8.80;99.90
4390;DHT22;2209;48.982;8.406;2024-03-06T07:41:39;8.80;99.90
4390;DHT22;2209;48.982;8.406;2024-03-06T07:44:01;8.80;99.90
4390;DHT22;2209;48.982;8.406;2024-03-06T07:46:23;8.80;99.90
4390;DHT22;2209;48.982;8.406;2024-03-06T07:48:46;8.80;99.90
4390;DHT22;2209;48.982;8.406;2024-03-06T07:51:08;8.80;99.90
4390;DHT22;2209;48.982;8.406;2024-03-06T07:53:30;8.80;99.90
4390;DHT22;2209;48.982;8.406;2024-03-06T07:55:53;8.80;99.90
4390;DHT22;2209;48.982;8.406;2024-03-06T07:58:15;8.80;99.90
4390;DHT22;2209;48.982;8.406;2024-03-06T08:00:38;8.80;99.90
4390;DHT22;2209;48.982;8.406;2024-03-06T08:03:00;8.80;99.90
4390;DHT22;2209;48.982;8.406;2024-03-06T08:05:23;8.90;99.90
4390;DHT22;2209;48.982;8.406;2024-03-06T08:07:45;8.80;99.90
4390;DHT22;2209;48.982;8.406;2024-03-06T08:10:08;8.90;99.90
4390;DHT22;2209;48.982;8.406;2024-03-06T08:12:35;8.90;99.90
4390;DHT22;2209;48.982;8.406;2024-03-06T08:14:57;9.00;99.90
4390;DHT22;2209;48.982;8.406;2024-03-06T08:17:19;9.00;99.90
4390;DHT22;2209;48.982;8.406;2024-03-06T08:19:41;9.00;99.90
4390;DHT22;2209;48.982;8.406;2024-03-06T08:22:03;9.00;99.90
4390;DHT22;2209;48.982;8.406;2024-03-06T08:24:25;9.00;99.90
4390;DHT22;2209;48.982;8.406;2024-03-06T08:26:47;9.00;99.90
4390;DHT22;2209;48.982;8.406;2024-03-06T08:29:11;8.90;99.90
4390;DHT22;2209;48.982;8.406;2024-03-06T08:31:33;9.00;99.90
4390;DHT22;2209;48.982;8.406;2024-03-06T08:33:55;9.00;99.90
4390;DHT22;2209;48.982;8.406;2024-03-06T08:36:18;9.00;99.90
4390;DHT22;2209;48.982;8.406;2024-03-06T08:38:41;9.00;99.90
4390;DHT22;2209;48.982;8.406;2024-03-06T08:41:04;9.00;99.90
4390;DHT22;2209;48.982;8.406;2024-03-06T08:43:26;9.00;99.90
4390;DHT22;2209;48.982;8.406;2024-03-06T08:45:49;9.00;99.90
4390;DHT22;2209;48.982;8.406;2024-03-06T08:48:11;9.00;99.90
4390;DHT22;2209;48.982;8.406;2024-03-06T08:50:33;9.00;99.90
4390;DHT22;2209;48.982;8.406;2024-03-06T08:52:55;9.00;99.90
4390;DHT22;2209;48.982;8.406;2024-03-06T08:55:17;9.00;99.90
4390;DHT22;2209;48.982;8.406;2024-03-06T08:57:39;9.00;99.90
4390;DHT22;2209;48.982;8.406;2024-03-06T09:00:03;9.00;99.90
4390;DHT22;2209;48.982;8.406;2024-03-06T09:02:27;9.10;99.90
4390;DHT22;2209;48.982;8.406;2024-03-06T09:04:49;9.10;99.90
4390;DHT22;2209;48.982;8.406;2024-03-06T09:07:12;9.10;99.90
4390;DHT22;2209;48.982;8.406;2024-03-06T09:09:35;9.10;99.90
4390;DHT22;2209;48.982;8.406;2024-03-06T09:11:57;9.10;99.90
4390;DHT22;2209;48.982;8.406;2024-03-06T09:14:19;9.10;99.90
4390;DHT22;2209;48.982;8.406;2024-03-06T09:16:41;9.10;99.90
4390;DHT22;2209;48.982;8.406;2024-03-06T09:19:05;9.10;99.90
4390;DHT22;2209;48.982;8.406;2024-03-06T09:21:28;9.10;99.90
4390;DHT22;2209;48.982;8.406;2024-03-06T09:23:50;9.20;99.90
4390;DHT22;2209;48.982;8.406;2024-03-06T09:26:12;9.20;99.90
4390;DHT22;2209;48.982;8.406;2024-03-06T09:28:34;9.20;99.90
4390;DHT22;2209;48.982;8.406;2024-03-06T09:30:56;9.20;99.90
4390;DHT22;2209;48.982;8.406;2024-03-06T09:33:18;9.20;99.90
4390;DHT22;2209;48.982;8.406;2024-03-06T09:35:42;9.10;99.90
4390;DHT22;2209;48.982;8.406;2024-03-06T09:38:06;9.10;99.90
4390;DHT22;2209;48.982;8.406;2024-03-06T09:40:28;9.10;99.90
4390;DHT22;2209;48.982;8.406;2024-03-06T09:42:52;9.20;99.90
4390;DHT22;2209;48.982;8.406;2024-03-06T09:45:14;9.20;99.90
4390;DHT22;2209;48.982;8.406;2024-03-06T09:47:38;9.20;99.90
4390;DHT22;2209;48.982;8.406;2024-03-06T09:50:00;9.20;99.90
4390;DHT22;2209;48.982;8.406;2024-03-06T09:52:28;9.20;99.90
4390;DHT22;2209;48.982;8.406;2024-03-06T09:54:53;9.20;99.90
4390;DHT22;2209;48.982;8.406;2024-03-06T09:57:16;9.20;99.90
4390;DHT22;2209;48.982;8.406;2024-03-06T09:59:38;9.20;99.90
4390;DHT22;2209;48.982;8.406;2024-03-06T10:02:16;9.20;99.90
4390;DHT22;2209;48.982;8.406;2024-03-06T10:04:40;9.30;99.90
4390;DHT22;2209;48.982;8.406;2024-03-06T10:07:02;9.30;99.90
4390;DHT22;2209;48.982;8.406;2024-03-06T10:09:27;9.30;99.90
4390;DHT22;2209;48.982;8.406;2024-03-06T10:11:50;9.30;99.90
4390;DHT22;2209;48.982;8.406;2024-03-06T10:14:14;9.30;99.90
4390;DHT22;2209;48.982;8.406;2024-03-06T11:05:59;9.40;99.90
4390;DHT22;2209;48.982;8.406;2024-03-06T11:08:23;9.40;99.90
4390;DHT22;2209;48.982;8.406;2024-03-06T11:10:46;9.40;99.90
4390;DHT22;2209;48.982;8.406;2024-03-06T11:13:20;9.40;99.90
4390;DHT22;2209;48.982;8.406;2024-03-06T11:15:43;9.40;99.90
4390;DHT22;2209;48.982;8.406;2024-03-06T11:18:42;9.40;99.90
4390;DHT22;2209;48.982;8.406;2024-03-06T11:21:30;9.40;99.90
4390;DHT22;2209;48.982;8.406;2024-03-06T11:24:15;9.40;99.90
4390;DHT22;2209;48.982;8.406;2024-03-06T11:26:37;9.40;99.90
4390;DHT22;2209;48.982;8.406;2024-03-06T11:28:59;9.40;99.90
4390;DHT22;2209;48.982;8.406;2024-03-06T11:31:22;9.40;99.90
4390;DHT22;2209;48.982;8.406;2024-03-06T11:33:47;9.40;99.90
4390;DHT22;2209;48.982;8.406;2024-03-06T11:36:17;9.40;99.90
4390;DHT22;2209;48.982;8.406;2024-03-06T11:38:40;9.40;99.90
4390;DHT22;2209;48.982;8.406;2024-03-06T11:41:04;9.40;99.90
4390;DHT22;2209;48.982;8.406;2024-03-06T11:43:28;9.40;99.90
4390;DHT22;2209;48.982;8.406;2024-03-06T11:45:51;9.40;99.90
4390;DHT22;2209;48.982;8.406;2024-03-06T11:48:14;9.50;99.90
4390;DHT22;2209;48.982;8.406;2024-03-06T11:50:37;9.50;99.90
4390;DHT22;2209;48.982;8.406;2024-03-06T11:53:00;9.50;99.90
4390;DHT22;2209;48.982;8.406;2024-03-06T11:55:23;9.50;99.90
4390;DHT22;2209;48.982;8.406;2024-03-06T11:57:47;9.50;99.90
4390;DHT22;2209;48.982;8.406;2024-03-06T12:00:09;9.50;99.90
4390;DHT22;2209;48.982;8.406;2024-03-06T12:02:33;9.50;99.90
4390;DHT22;2209;48.982;8.406;2024-03-06T12:04:56;9.50;99.90
4390;DHT22;2209;48.982;8.406;2024-03-06T12:07:18;9.50;99.90
4390;DHT22;2209;48.982;8.406;2024-03-06T12:09:40;9.50;99.90
4390;DHT22;2209;48.982;8.406;2024-03-06T12:12:08;9.50;99.90
4390;DHT22;2209;48.982;8.406;2024-03-06T12:14:30;9.50;99.90
4390;DHT22;2209;48.982;8.406;2024-03-06T12:16:55;9.60;99.90
4390;DHT22;2209;48.982;8.406;2024-03-06T12:19:19;9.60;99.90
4390;DHT22;2209;48.982;8.406;2024-03-06T12:21:42;9.60;99.90
4390;DHT22;2209;48.982;8.406;2024-03-06T12:24:06;9.60;99.90
4390;DHT22;2209;48.982;8.406;2024-03-06T12:26:28;9.60;99.90
4390;DHT22;2209;48.982;8.406;2024-03-06T12:29:04;9.60;99.90
4390;DHT22;2209;48.982;8.406;2024-03-06T12:31:26;9.60;99.90
4390;DHT22;2209;48.982;8.406;2024-03-06T12:33:56;9.60;99.90
4390;DHT22;2209;48.982;8.406;2024-03-06T12:36:25;9.60;99.90
4390;DHT22;2209;48.982;8.406;2024-03-06T12:38:54;9.60;99.90
4390;DHT22;2209;48.982;8.406;2024-03-06T12:41:16;9.70;99.90
4390;DHT22;2209;48.982;8.406;2024-03-06T12:43:38;9.70;99.90
4390;DHT22;2209;48.982;8.406;2024-03-06T12:46:02;9.70;99.90
4390;DHT22;2209;48.982;8.406;2024-03-06T12:48:24;9.70;99.90
4390;DHT22;2209;48.982;8.406;2024-03-06T12:50:46;9.70;99.90
4390;DHT22;2209;48.982;8.406;2024-03-06T12:53:12;9.80;99.90
4390;DHT22;2209;48.982;8.406;2024-03-06T12:55:34;9.80;99.90
4390;DHT22;2209;48.982;8.406;2024-03-06T12:57:56;9.80;99.90
4390;DHT22;2209;48.982;8.406;2024-03-06T13:00:18;9.80;99.90
4390;DHT22;2209;48.982;8.406;2024-03-06T13:02:42;9.80;99.90
4390;DHT22;2209;48.982;8.406;2024-03-06T13:05:05;9.80;99.90
4390;DHT22;2209;48.982;8.406;2024-03-06T13:07:28;9.80;99.90
4390;DHT22;2209;48.982;8.406;2024-03-06T13:09:50;9.80;99.90
4390;DHT22;2209;48.982;8.406;2024-03-06T13:12:12;9.80;99.90
4390;DHT22;2209;48.982;8.406;2024-03-06T13:14:34;9.80;99.90
4390;DHT22;2209;48.982;8.406;2024-03-06T13:16:56;9.80;99.90
4390;DHT22;2209;48.982;8.406;2024-03-06T13:19:20;9.90;99.90
4390;DHT22;2209;48.982;8.406;2024-03-06T13:21:43;9.90;99.90
4390;DHT22;2209;48.982;8.406;2024-03-06T13:24:05;9.90;99.90
4390;DHT22;2209;48.982;8.406;2024-03-06T13:26:27;10.00;99.90
4390;DHT22;2209;48.982;8.406;2024-03-06T13:28:49;10.00;99.90
4390;DHT22;2209;48.982;8.406;2024-03-06T13:31:11;10.00;99.90
4390;DHT22;2209;48.982;8.406;2024-03-06T13:33:33;10.00;99.90
4390;DHT22;2209;48.982;8.406;2024-03-06T13:35:57;10.00;99.90
4390;DHT22;2209;48.982;8.406;2024-03-06T13:38:19;10.00;99.90
4390;DHT22;2209;48.982;8.406;2024-03-06T13:40:41;9.90;99.90
4390;DHT22;2209;48.982;8.406;2024-03-06T13:43:03;9.90;99.90
4390;DHT22;2209;48.982;8.406;2024-03-06T13:45:25;9.90;99.90
4390;DHT22;2209;48.982;8.406;2024-03-06T13:47:47;9.90;99.90
4390;DHT22;2209;48.982;8.406;2024-03-06T13:50:11;9.90;99.90
4390;DHT22;2209;48.982;8.406;2024-03-06T13:52:35;9.90;99.90
4390;DHT22;2209;48.982;8.406;2024-03-06T13:54:57;9.90;99.90
4390;DHT22;2209;48.982;8.406;2024-03-06T13:57:19;9.90;99.90
4390;DHT22;2209;48.982;8.406;2024-03-06T13:59:41;9.90;99.90
4390;DHT22;2209;48.982;8.406;2024-03-06T14:02:03;10.00;99.90
4390;DHT22;2209;48.982;8.406;2024-03-06T14:04:26;10.00;99.90
4390;DHT22;2209;48.982;8.406;2024-03-06T14:06:49;10.00;99.90
4390;DHT22;2209;48.982;8.406;2024-03-06T14:09:12;10.00;99.90
4390;DHT22;2209;48.982;8.406;2024-03-06T14:11:35;10.00;99.90
4390;DHT22;2209;48.982;8.406;2024-03-06T14:13:57;10.00;99.90
4390;DHT22;2209;48.982;8.406;2024-03-06T14:16:19;10.00;99.90
4390;DHT22;2209;48.982;8.406;2024-03-06T14:18:41;10.00;99.90
4390;DHT22;2209;48.982;8.406;2024-03-06T14:21:04;10.00;99.90
4390;DHT22;2209;48.982;8.406;2024-03-06T14:23:26;9.90;99.90
4390;DHT22;2209;48.982;8.406;2024-03-06T14:25:49;9.90;99.90
4390;DHT22;2209;48.982;8.406;2024-03-06T14:28:11;9.90;99.90
4390;DHT22;2209;48.982;8.406;2024-03-06T14:30:33;9.90;99.90
4390;DHT22;2209;48.982;8.406;2024-03-06T14:32:56;9.90;99.90
4390;DHT22;2209;48.982;8.406;2024-03-06T14:35:18;9.90;99.90
4390;DHT22;2209;48.982;8.406;2024-03-06T14:37:40;9.90;99.90
4390;DHT22;2209;48.982;8.406;2024-03-06T14:40:03;9.90;99.90
4390;DHT22;2209;48.982;8.406;2024-03-06T14:42:30;9.90;99.90
4390;DHT22;2209;48.982;8.406;2024-03-06T14:44:52;9.90;99.90
4390;DHT22;2209;48.982;8.406;2024-03-06T14:47:15;9.80;99.90
4390;DHT22;2209;48.982;8.406;2024-03-06T14:49:37;9.80;99.90
4390;DHT22;2209;48.982;8.406;2024-03-06T14:51:59;9.80;99.90
4390;DHT22;2209;48.982;8.406;2024-03-06T14:54:21;9.80;99.90
4390;DHT22;2209;48.982;8.406;2024-03-06T14:56:43;9.80;99.90
4390;DHT22;2209;48.982;8.406;2024-03-06T14:59:07;9.80;99.90
4390;DHT22;2209;48.982;8.406;2024-03-06T15:01:29;9.80;99.90
4390;DHT22;2209;48.982;8.406;2024-03-06T15:03:51;9.80;99.90
4390;DHT22;2209;48.982;8.406;2024-03-06T15:06:13;9.80;99.90
4390;DHT22;2209;48.982;8.406;2024-03-06T15:08:35;9.80;99.90
4390;DHT22;2209;48.982;8.406;2024-03-06T15:10:57;9.80;99.90
4390;DHT22;2209;48.982;8.406;2024-03-06T15:13:20;9.80;99.90
4390;DHT22;2209;48.982;8.406;2024-03-06T15:15:45;9.80;99.90
4390;DHT22;2209;48.982;8.406;2024-03-06T15:18:07;9.80;99.90
4390;DHT22;2209;48.982;8.406;2024-03-06T15:20:29;9.80;99.90
4390;DHT22;2209;48.982;8.406;2024-03-06T15:22:53;9.80;99.90
4390;DHT22;2209;48.982;8.406;2024-03-06T15:25:17;9.80;99.90
4390;DHT22;2209;48.982;8.406;2024-03-06T15:27:40;9.80;99.90
4390;DHT22;2209;48.982;8.406;2024-03-06T15:30:03;9.80;99.90
4390;DHT22;2209;48.982;8.406;2024-03-06T15:35:51;9.80;99.90
4390;DHT22;2209;48.982;8.406;2024-03-06T15:38:13;9.80;99.90
4390;DHT22;2209;48.982;8.406;2024-03-06T15:40:36;9.80;99.90
4390;DHT22;2209;48.982;8.406;2024-03-06T15:42:58;9.80;99.90
4390;DHT22;2209;48.982;8.406;2024-03-06T15:45:20;9.70;99.90
4390;DHT22;2209;48.982;8.406;2024-03-06T15:47:43;9.70;99.90
4390;DHT22;2209;48.982;8.406;2024-03-06T15:50:06;9.70;99.90
4390;DHT22;2209;48.982;8.406;2024-03-06T15:52:31;9.70;99.90
4390;DHT22;2209;48.982;8.406;2024-03-06T15:54:53;9.70;99.90
4390;DHT22;2209;48.982;8.406;2024-03-06T15:57:15;9.70;99.90
4390;DHT22;2209;48.982;8.406;2024-03-06T15:59:39;9.70;99.90
4390;DHT22;2209;48.982;8.406;2024-03-06T16:02:02;9.70;99.90
4390;DHT22;2209;48.982;8.406;2024-03-06T16:04:24;9.70;99.90
4390;DHT22;2209;48.982;8.406;2024-03-06T16:06:47;9.70;99.90
4390;DHT22;2209;48.982;8.406;2024-03-06T16:09:12;9.70;99.90
4390;DHT22;2209;48.982;8.406;2024-03-06T16:11:34;9.70;99.90
4390;DHT22;2209;48.982;8.406;2024-03-06T16:13:56;9.70;99.90
4390;DHT22;2209;48.982;8.406;2024-03-06T16:16:20;9.70;99.90
4390;DHT22;2209;48.982;8.406;2024-03-06T16:18:42;9.70;99.90
4390;DHT22;2209;48.982;8.406;2024-03-06T16:21:04;9.70;99.90
4390;DHT22;2209;48.982;8.406;2024-03-06T16:23:27;9.70;99.90
4390;DHT22;2209;48.982;8.406;2024-03-06T16:25:51;9.70;99.90
4390;DHT22;2209;48.982;8.406;2024-03-06T16:28:13;9.70;99.90
4390;DHT22;2209;48.982;8.406;2024-03-06T16:30:35;9.70;99.90
4390;DHT22;2209;48.982;8.406;2024-03-06T16:32:57;9.70;99.90
4390;DHT22;2209;48.982;8.406;2024-03-06T16:35:19;9.60;99.90
4390;DHT22;2209;48.982;8.406;2024-03-06T16:37:42;9.60;99.90
4390;DHT22;2209;48.982;8.406;2024-03-06T16:40:05;9.70;99.90
4390;DHT22;2209;48.982;8.406;2024-03-06T16:42:29;9.70;99.90
4390;DHT22;2209;48.982;8.406;2024-03-06T16:44:51;9.60;99.90
4390;DHT22;2209;48.982;8.406;2024-03-06T16:47:13;9.60;99.90